sensor_id;sensor_type;location;lat;lon;timestamp;temperature;humidity
4962;DHT22;2496;52.468;13.342;2022-08-21T00:01:21;19.80;99.90
4962;DHT22;2496;52.468;13.342;2022-08-21T00:03:49;19.80;99.90
4962;DHT22;2496;52.468;13.342;2022-08-21T00:06:18;19.80;99.90
4962;DHT22;2496;52.468;13.342;2022-08-21T00:08:45;19.80;99.90
4962;DHT22;2496;52.468;13.342;2022-08-21T00:11:13;19.80;99.90
4962;DHT22;2496;52.468;13.342;2022-08-21T00:13:41;19.80;99.90
4962;DHT22;2496;52.468;13.342;2022-08-21T00:16:08;19.70;99.90
4962;DHT22;2496;52.468;13.342;2022-08-21T00:18:36;19.70;99.90
4962;DHT22;2496;52.468;13.342;2022-08-21T00:21:04;19.70;99.90
4962;DHT22;2496;52.468;13.342;2022-08-21T00:23:35;19.70;99.90
4962;DHT22;2496;52.468;13.342;2022-08-21T00:26:03;19.70;99.90
4962;DHT22;2496;52.468;13.342;2022-08-21T00:28:30;19.70;99.90
4962;DHT22;2496;52.468;13.342;2022-08-21T00:30:58;19.70;99.90
4962;DHT22;2496;52.468;13.342;2022-08-21T00:33:26;19.60;99.90
4962;DHT22;2496;52.468;13.342;2022-08-21T00:35:53;19.60;99.90
4962;DHT22;2496;52.468;13.342;2022-08-21T00:38:21;19.60;99.90
4962;DHT22;2496;52.468;13.342;2022-08-21T00:40:52;19.60;99.90
4962;DHT22;2496;52.468;13.342;2022-08-21T00:43:21;19.50;99.90
4962;DHT22;2496;52.468;13.342;2022-08-21T00:45:49;19.50;99.90
4962;DHT22;2496;52.468;13.342;2022-08-21T00:48:16;19.50;99.90
4962;DHT22;2496;52.468;13.342;2022-08-21T00:50:52;19.50;99.90
4962;DHT22;2496;52.468;13.342;2022-08-21T00:53:21;19.50;99.90
4962;DHT22;2496;52.468;13.342;2022-08-21T00:55:50;19.50;99.90
4962;DHT22;2496;52.468;13.342;2022-08-21T00:58:19;19.50;99.90
4962;DHT22;2496;52.468;13.342;2022-08-21T01:00:47;19.50;99.90
4962;DHT22;2496;52.468;13.342;2022-08-21T01:03:17;19.50;99.90
4962;DHT22;2496;52.468;13.342;2022-08-21T01:05:46;19.50;99.90
4962;DHT22;2496;52.468;13.342;2022-08-21T01:08:14;19.40;99.90
4962;DHT22;2496;52.468;13.342;2022-08-21T01:10:42;19.40;99.90
4962;DHT22;2496;52.468;13.342;2022-08-21T01:13:12;19.40;99.90
4962;DHT22;2496;52.468;13.342;2022-08-21T01:15:45;19.30;99.90
4962;DHT22;2496;52.468;13.342;2022-08-21T01:18:13;19.30;99.90
4962;DHT22;2496;52.468;13.342;2022-08-21T01:20:44;19.30;99.90
4962;DHT22;2496;52.468;13.342;2022-08-21T01:23:14;19.20;99.90
4962;DHT22;2496;52.468;13.342;2022-08-21T01:25:40;19.20;99.90
4962;DHT22;2496;52.468;13.342;2022-08-21T01:28:12;19.20;99.90
4962;DHT22;2496;52.468;13.342;2022-08-21T01:30:40;19.20;99.90
4962;DHT22;2496;52.468;13.342;2022-08-21T01:33:09;19.20;99.90
4962;DHT22;2496;52.468;13.342;2022-08-21T01:35:36;19.20;99.90
4962;DHT22;2496;52.468;13.342;2022-08-21T01:38:04;19.20;99.90
4962;DHT22;2496;52.468;13.342;2022-08-21T01:40:32;19.20;99.90
4962;DHT22;2496;52.468;13.342;2022-08-21T01:42:59;19.20;99.90
4962;DHT22;2496;52.468;13.342;2022-08-21T01:45:26;19.20;99.90
4962;DHT22;2496;52.468;13.342;2022-08-21T01:47:53;19.10;99.90
4962;DHT22;2496;52.468;13.342;2022-08-21T01:50:20;19.10;99.90
4962;DHT22;2496;52.468;13.342;2022-08-21T01:52:48;19.10;99.90
4962;DHT22;2496;52.468;13.342;2022-08-21T01:55:16;19.00;99.90
4962;DHT22;2496;52.468;13.342;2022-08-21T01:57:45;19.00;99.90
4962;DHT22;2496;52.468;13.342;2022-08-21T02:00:16;19.00;99.90
4962;DHT22;2496;52.468;13.342;2022-08-21T02:02:44;19.00;99.90
4962;DHT22;2496;52.468;13.342;2022-08-21T02:05:12;19.00;99.90
4962;DHT22;2496;52.468;13.342;2022-08-21T02:07:42;18.90;99.90
4962;DHT22;2496;52.468;13.342;2022-08-21T02:10:11;18.90;99.90
4962;DHT22;2496;52.468;13.342;2022-08-21T02:12:38;18.90;99.90
4962;DHT22;2496;52.468;13.342;2022-08-21T02:15:08;18.90;99.90
4962;DHT22;2496;52.468;13.342;2022-08-21T02:17:40;18.90;99.90
4962;DHT22;2496;52.468;13.342;2022-08-21T02:20:09;18.90;99.90
4962;DHT22;2496;52.468;13.342;2022-08-21T02:22:36;18.80;99.90
4962;DHT22;2496;52.468;13.342;2022-08-21T02:25:03;18.80;99.90
4962;DHT22;2496;52.468;13.342;2022-08-21T02:27:38;18.80;99.90
4962;DHT22;2496;52.468;13.342;2022-08-21T02:30:10;18.70;99.90
4962;DHT22;2496;52.468;13.342;2022-08-21T02:32:38;18.70;99.90
4962;DHT22;2496;52.468;13.342;2022-08-21T02:35:06;18.60;99.90
4962;DHT22;2496;52.468;13.342;2022-08-21T02:37:33;18.60;99.90
4962;DHT22;2496;52.468;13.342;2022-08-21T02:40:00;18.60;99.90
4962;DHT22;2496;52.468;13.342;2022-08-21T02:42:27;18.60;99.90
4962;DHT22;2496;52.468;13.342;2022-08-21T02:44:55;18.60;99.90
4962;DHT22;2496;52.468;13.342;2022-08-21T02:47:24;18.60;99.90
4962;DHT22;2496;52.468;13.342;2022-08-21T02:49:52;18.60;99.90
4962;DHT22;2496;52.468;13.342;2022-08-21T02:52:19;18.60;99.90
4962;DHT22;2496;52.468;13.342;2022-08-21T02:54:47;18.60;99.90
4962;DHT22;2496;52.468;13.342;2022-08-21T02:57:14;18.60;99.90
4962;DHT22;2496;52.468;13.342;2022-08-21T02:59:41;18.50;99.90
4962;DHT22;2496;52.468;13.342;2022-08-21T03:02:08;18.50;99.90
4962;DHT22;2496;52.468;13.342;2022-08-21T03:04:38;18.50;99.90
4962;DHT22;2496;52.468;13.342;2022-08-21T03:07:05;18.40;99.90
4962;DHT22;2496;52.468;13.342;2022-08-21T03:09:34;18.40;99.90
4962;DHT22;2496;52.468;13.342;2022-08-21T03:12:01;18.40;99.90
4962;DHT22;2496;52.468;13.342;2022-08-21T03:14:29;18.30;99.90
4962;DHT22;2496;52.468;13.342;2022-08-21T03:16:56;18.30;99.90
4962;DHT22;2496;52.468;13.342;2022-08-21T03:19:22;18.30;99.90
4962;DHT22;2496;52.468;13.342;2022-08-21T03:21:51;18.30;99.90
4962;DHT22;2496;52.468;13.342;2022-08-21T03:24:17;18.30;99.90
4962;DHT22;2496;52.468;13.342;2022-08-21T03:26:44;18.30;99.90
4962;DHT22;2496;52.468;13.342;2022-08-21T03:29:11;18.30;99.90
4962;DHT22;2496;52.468;13.342;2022-08-21T03:31:38;18.30;99.90
4962;DHT22;2496;52.468;13.342;2022-08-21T03:34:05;18.30;99.90
4962;DHT22;2496;52.468;13.342;2022-08-21T03:36:34;18.20;99.90
4962;DHT22;2496;52.468;13.342;2022-08-21T03:39:03;18.20;99.90
4962;DHT22;2496;52.468;13.342;2022-08-21T03:41:31;18.20;99.90
4962;DHT22;2496;52.468;13.342;2022-08-21T03:43:58;18.10;99.90
4962;DHT22;2496;52.468;13.342;2022-08-21T03:46:24;18.10;99.90
4962;DHT22;2496;52.468;13.342;2022-08-21T03:48:51;18.10;99.90
4962;DHT22;2496;52.468;13.342;2022-08-21T03:51:18;18.10;99.90
4962;DHT22;2496;52.468;13.342;2022-08-21T03:53:45;18.10;99.90
4962;DHT22;2496;52.468;13.342;2022-08-21T03:56:14;18.10;99.90
4962;DHT22;2496;52.468;13.342;2022-08-21T03:58:41;18.10;99.90
4962;DHT22;2496;52.468;13.342;2022-08-21T04:01:10;18.20;99.90
4962;DHT22;2496;52.468;13.342;2022-08-21T04:03:38;18.10;99.90
4962;DHT22;2496;52.468;13.342;2022-08-21T04:06:06;18.10;99.90
4962;DHT22;2496;52.468;13.342;2022-08-21T04:08:33;18.10;99.90
4962;DHT22;2496;52.468;13.342;2022-08-21T04:11:00;18.00;99.90
4962;DHT22;2496;52.468;13.342;2022-08-21T04:13:29;18.00;99.90
4962;DHT22;2496;52.468;13.342;2022-08-21T04:15:56;18.00;99.90
4962;DHT22;2496;52.468;13.342;2022-08-21T04:18:24;18.00;99.90
4962;DHT22;2496;52.468;13.342;2022-08-21T04:20:52;18.00;99.90
4962;DHT22;2496;52.468;13.342;2022-08-21T04:23:20;18.00;99.90
4962;DHT22;2496;52.468;13.342;2022-08-21T04:25:47;17.90;99.90
4962;DHT22;2496;52.468;13.342;2022-08-21T04:28:14;17.90;99.90
4962;DHT22;2496;52.468;13.342;2022-08-21T04:30:43;17.90;99.90
4962;DHT22;2496;52.468;13.342;2022-08-21T04:33:10;17.90;99.90
4962;DHT22;2496;52.468;13.342;2022-08-21T04:35:37;17.80;99.90
4962;DHT22;2496;52.468;13.342;2022-08-21T04:38:04;17.80;99.90
4962;DHT22;2496;52.468;13.342;2022-08-21T04:40:30;17.80;99.90
4962;DHT22;2496;52.468;13.342;2022-08-21T04:43:01;17.80;99.90
4962;DHT22;2496;52.468;13.342;2022-08-21T04:45:31;17.80;99.90
4962;DHT22;2496;52.468;13.342;2022-08-21T04:48:02;17.80;99.90
4962;DHT22;2496;52.468;13.342;2022-08-21T04:50:34;17.80;99.90
4962;DHT22;2496;52.468;13.342;2022-08-21T04:53:05;17.80;99.90
4962;DHT22;2496;52.468;13.342;2022-08-21T04:55:34;17.80;99.90
4962;DHT22;2496;52.468;13.342;2022-08-21T04:58:04;17.80;99.90
4962;DHT22;2496;52.468;13.342;2022-08-21T05:00:32;17.80;99.90
4962;DHT22;2496;52.468;13.342;2022-08-21T05:03:01;17.90;99.90
4962;DHT22;2496;52.468;13.342;2022-08-21T05:05:29;17.80;99.90
4962;DHT22;2496;52.468;13.342;2022-08-21T05:07:57;17.80;99.90
4962;DHT22;2496;52.468;13.342;2022-08-21T05:10:26;17.80;99.90
4962;DHT22;2496;52.468;13.342;2022-08-21T05:12:53;17.80;99.90
4962;DHT22;2496;52.468;13.342;2022-08-21T05:15:20;17.80;99.90
4962;DHT22;2496;52.468;13.342;2022-08-21T05:17:47;17.80;99.90
4962;DHT22;2496;52.468;13.342;2022-08-21T05:20:17;17.80;99.90
4962;DHT22;2496;52.468;13.342;2022-08-21T05:22:45;17.80;99.90
4962;DHT22;2496;52.468;13.342;2022-08-21T05:25:12;17.90;99.90
4962;DHT22;2496;52.468;13.342;2022-08-21T05:27:39;18.00;99.90
4962;DHT22;2496;52.468;13.342;2022-08-21T05:30:07;18.00;99.90
4962;DHT22;2496;52.468;13.342;2022-08-21T05:32:34;18.10;99.90
4962;DHT22;2496;52.468;13.342;2022-08-21T05:35:01;18.10;99.90
4962;DHT22;2496;52.468;13.342;2022-08-21T05:37:29;18.10;99.90
4962;DHT22;2496;52.468;13.342;2022-08-21T05:39:56;18.10;99.90
4962;DHT22;2496;52.468;13.342;2022-08-21T05:42:23;18.10;99.90
4962;DHT22;2496;52.468;13.342;2022-08-21T05:44:50;18.20;99.90
4962;DHT22;2496;52.468;13.342;2022-08-21T05:47:17;18.20;99.90
4962;DHT22;2496;52.468;13.342;2022-08-21T05:49:44;18.20;99.90
4962;DHT22;2496;52.468;13.342;2022-08-21T05:52:11;18.20;99.90
4962;DHT22;2496;52.468;13.342;2022-08-21T05:54:39;18.20;99.90
4962;DHT22;2496;52.468;13.342;2022-08-21T05:57:06;18.20;99.90
4962;DHT22;2496;52.468;13.342;2022-08-21T05:59:33;18.20;99.90
4962;DHT22;2496;52.468;13.342;2022-08-21T06:02:01;18.20;99.90
4962;DHT22;2496;52.468;13.342;2022-08-21T06:04:28;18.20;99.90
4962;DHT22;2496;52.468;13.342;2022-08-21T06:06:55;18.30;99.90
4962;DHT22;2496;52.468;13.342;2022-08-21T06:09:22;18.30;99.90
4962;DHT22;2496;52.468;13.342;2022-08-21T06:11:50;18.30;99.90
4962;DHT22;2496;52.468;13.342;2022-08-21T06:14:17;18.40;99.90
4962;DHT22;2496;52.468;13.342;2022-08-21T06:16:44;18.50;99.90
4962;DHT22;2496;52.468;13.342;2022-08-21T06:19:12;18.50;99.90
4962;DHT22;2496;52.468;13.342;2022-08-21T06:21:39;18.60;99.90
4962;DHT22;2496;52.468;13.342;2022-08-21T06:24:06;18.60;99.90
4962;DHT22;2496;52.468;13.342;2022-08-21T06:26:33;18.70;99.90
4962;DHT22;2496;52.468;13.342;2022-08-21T06:29:02;18.70;99.90
4962;DHT22;2496;52.468;13.342;2022-08-21T06:31:29;18.70;99.90
4962;DHT22;2496;52.468;13.342;2022-08-21T06:33:56;18.70;99.90
4962;DHT22;2496;52.468;13.342;2022-08-21T06:36:23;18.70;99.90
4962;DHT22;2496;52.468;13.342;2022-08-21T06:38:50;18.70;99.90
4962;DHT22;2496;52.468;13.342;2022-08-21T06:41:17;18.70;99.90
4962;DHT22;2496;52.468;13.342;2022-08-21T06:43:44;18.60;99.90
4962;DHT22;2496;52.468;13.342;2022-08-21T06:46:12;18.50;99.90
4962;DHT22;2496;52.468;13.342;2022-08-21T06:48:39;18.50;99.90
4962;DHT22;2496;52.468;13.342;2022-08-21T06:51:06;18.50;99.90
4962;DHT22;2496;52.468;13.342;2022-08-21T06:53:33;18.50;99.90
4962;DHT22;2496;52.468;13.342;2022-08-21T06:56:00;18.50;99.90
4962;DHT22;2496;52.468;13.342;2022-08-21T06:58:27;18.60;99.90
4962;DHT22;2496;52.468;13.342;2022-08-21T07:00:55;18.60;99.90
4962;DHT22;2496;52.468;13.342;2022-08-21T07:03:26;18.60;99.90
4962;DHT22;2496;52.468;13.342;2022-08-21T07:05:54;18.70;99.90
4962;DHT22;2496;52.468;13.342;2022-08-21T07:08:24;18.70;99.90
4962;DHT22;2496;52.468;13.342;2022-08-21T07:10:53;18.70;99.90
4962;DHT22;2496;52.468;13.342;2022-08-21T07:13:20;18.70;99.90
4962;DHT22;2496;52.468;13.342;2022-08-21T07:15:47;18.70;99.90
4962;DHT22;2496;52.468;13.342;2022-08-21T07:18:15;18.80;99.90
4962;DHT22;2496;52.468;13.342;2022-08-21T07:20:44;18.90;99.90
4962;DHT22;2496;52.468;13.342;2022-08-21T07:23:14;19.00;99.90
4962;DHT22;2496;52.468;13.342;2022-08-21T07:25:43;19.00;99.90
4962;DHT22;2496;52.468;13.342;2022-08-21T07:28:10;19.10;99.90
4962;DHT22;2496;52.468;13.342;2022-08-21T07:30:37;19.20;99.90
4962;DHT22;2496;52.468;13.342;2022-08-21T07:33:04;19.30;99.90
4962;DHT22;2496;52.468;13.342;2022-08-21T07:35:31;19.30;99.90
4962;DHT22;2496;52.468;13.342;2022-08-21T07:38:00;19.40;99.90
4962;DHT22;2496;52.468;13.342;2022-08-21T07:40:27;19.50;99.90
4962;DHT22;2496;52.468;13.342;2022-08-21T07:42:54;19.60;99.90
4962;DHT22;2496;52.468;13.342;2022-08-21T07:45:22;19.60;99.90
4962;DHT22;2496;52.468;13.342;2022-08-21T07:47:51;19.70;99.90
4962;DHT22;2496;52.468;13.342;2022-08-21T07:50:18;19.80;99.90
4962;DHT22;2496;52.468;13.342;2022-08-21T07:52:46;19.90;99.90
4962;DHT22;2496;52.468;13.342;2022-08-21T07:55:16;20.00;99.90
4962;DHT22;2496;52.468;13.342;2022-08-21T07:57:44;20.00;99.90
4962;DHT22;2496;52.468;13.342;2022-08-21T08:00:16;20.10;99.90
4962;DHT22;2496;52.468;13.342;2022-08-21T08:02:45;20.10;99.90
4962;DHT22;2496;52.468;13.342;2022-08-21T08:05:15;20.20;99.90
4962;DHT22;2496;52.468;13.342;2022-08-21T08:07:42;20.20;99.90
4962;DHT22;2496;52.468;13.342;2022-08-21T08:10:10;20.40;99.90
4962;DHT22;2496;52.468;13.342;2022-08-21T08:12:41;20.40;99.90
4962;DHT22;2496;52.468;13.342;2022-08-21T08:15:10;20.50;99.90
4962;DHT22;2496;52.468;13.342;2022-08-21T08:17:37;20.50;99.90
4962;DHT22;2496;52.468;13.342;2022-08-21T08:20:05;20.60;99.90
4962;DHT22;2496;52.468;13.342;2022-08-21T08:22:34;20.70;99.90
4962;DHT22;2496;52.468;13.342;2022-08-21T08:25:01;20.90;99.90
4962;DHT22;2496;52.468;13.342;2022-08-21T08:27:29;20.90;99.90
4962;DHT22;2496;52.468;13.342;2022-08-21T08:29:58;21.00;99.90
4962;DHT22;2496;52.468;13.342;2022-08-21T08:32:25;21.10;99.90
4962;DHT22;2496;52.468;13.342;2022-08-21T08:34:52;21.00;99.90
4962;DHT22;2496;52.468;13.342;2022-08-21T08:37:20;21.10;99.90
4962;DHT22;2496;52.468;13.342;2022-08-21T08:39:47;21.10;99.90
4962;DHT22;2496;52.468;13.342;2022-08-21T08:42:17;21.10;99.90
4962;DHT22;2496;52.468;13.342;2022-08-21T08:44:47;21.10;99.90
4962;DHT22;2496;52.468;13.342;2022-08-21T08:47:17;21.10;99.90
4962;DHT22;2496;52.468;13.342;2022-08-21T08:49:53;21.10;99.90
4962;DHT22;2496;52.468;13.342;2022-08-21T08:52:28;21.20;99.90
4962;DHT22;2496;52.468;13.342;2022-08-21T08:55:02;21.20;99.90
4962;DHT22;2496;52.468;13.342;2022-08-21T08:57:30;21.20;99.90
4962;DHT22;2496;52.468;13.342;2022-08-21T09:00:00;21.20;99.90
4962;DHT22;2496;52.468;13.342;2022-08-21T09:02:29;21.20;99.90
4962;DHT22;2496;52.468;13.342;2022-08-21T09:04:56;21.10;99.90
4962;DHT22;2496;52.468;13.342;2022-08-21T09:07:33;21.20;99.90
4962;DHT22;2496;52.468;13.342;2022-08-21T09:10:12;21.20;99.90
4962;DHT22;2496;52.468;13.342;2022-08-21T09:12:49;21.20;99.90
4962;DHT22;2496;52.468;13.342;2022-08-21T09:15:26;21.20;99.90
4962;DHT22;2496;52.468;13.342;2022-08-21T09:18:17;21.30;99.90
4962;DHT22;2496;52.468;13.342;2022-08-21T09:20:54;21.20;99.90
4962;DHT22;2496;52.468;13.342;2022-08-21T09:23:29;21.20;99.90
4962;DHT22;2496;52.468;13.342;2022-08-21T09:26:07;21.20;99.90
4962;DHT22;2496;52.468;13.342;2022-08-21T09:28:35;21.20;99.90
4962;DHT22;2496;52.468;13.342;2022-08-21T09:31:06;21.20;99.90
4962;DHT22;2496;52.468;13.342;2022-08-21T09:33:35;21.20;99.90
4962;DHT22;2496;52.468;13.342;2022-08-21T09:36:02;21.20;99.90
4962;DHT22;2496;52.468;13.342;2022-08-21T09:38:33;21.20;99.90
4962;DHT22;2496;52.468;13.342;2022-08-21T09:41:03;21.20;99.90
4962;DHT22;2496;52.468;13.342;2022-08-21T09:43:31;21.20;99.90
4962;DHT22;2496;52.468;13.342;2022-08-21T09:46:08;21.20;99.90
4962;DHT22;2496;52.468;13.342;2022-08-21T09:48:45;21.20;99.90
4962;DHT22;2496;52.468;13.342;2022-08-21T09:51:15;21.30;99.90
4962;DHT22;2496;52.468;13.342;2022-08-21T09:53:46;21.30;99.90
4962;DHT22;2496;52.468;13.342;2022-08-21T09:56:21;21.30;99.90
4962;DHT22;2496;52.468;13.342;2022-08-21T09:59:28;21.30;99.90
4962;DHT22;2496;52.468;13.342;2022-08-21T10:01:57;21.40;99.90
4962;DHT22;2496;52.468;13.342;2022-08-21T10:04:31;21.50;99.90
4962;DHT22;2496;52.468;13.342;2022-08-21T10:07:07;21.60;99.90
4962;DHT22;2496;52.468;13.342;2022-08-21T10:09:34;21.80;99.90
4962;DHT22;2496;52.468;13.342;2022-08-21T10:12:11;21.90;99.90
4962;DHT22;2496;52.468;13.342;2022-08-21T10:14:48;21.90;99.10
4962;DHT22;2496;52.468;13.342;2022-08-21T10:17:22;22.00;98.40
4962;DHT22;2496;52.468;13.342;2022-08-21T10:20:00;21.90;98.50
4962;DHT22;2496;52.468;13.342;2022-08-21T10:22:37;22.00;98.50
4962;DHT22;2496;52.468;13.342;2022-08-21T10:25:14;22.00;98.70
4962;DHT22;2496;52.468;13.342;2022-08-21T10:27:49;22.00;99.20
4962;DHT22;2496;52.468;13.342;2022-08-21T10:30:21;22.10;98.80
4962;DHT22;2496;52.468;13.342;2022-08-21T10:33:12;22.20;98.80
4962;DHT22;2496;52.468;13.342;2022-08-21T10:35:51;22.30;98.10
4962;DHT22;2496;52.468;13.342;2022-08-21T10:38:58;22.50;96.90
4962;DHT22;2496;52.468;13.342;2022-08-21T10:41:35;22.60;95.50
4962;DHT22;2496;52.468;13.342;2022-08-21T10:44:19;22.70;94.60
4962;DHT22;2496;52.468;13.342;2022-08-21T10:46:54;22.60;93.40
4962;DHT22;2496;52.468;13.342;2022-08-21T10:49:30;22.40;92.70
4962;DHT22;2496;52.468;13.342;2022-08-21T10:52:16;22.30;92.30
4962;DHT22;2496;52.468;13.342;2022-08-21T10:54:50;22.30;92.60
4962;DHT22;2496;52.468;13.342;2022-08-21T11:00:08;22.40;92.30
4962;DHT22;2496;52.468;13.342;2022-08-21T11:02:40;22.50;92.20
4962;DHT22;2496;52.468;13.342;2022-08-21T11:05:14;22.60;93.00
4962;DHT22;2496;52.468;13.342;2022-08-21T11:07:48;22.90;92.50
4962;DHT22;2496;52.468;13.342;2022-08-21T11:10:20;23.10;92.90
4962;DHT22;2496;52.468;13.342;2022-08-21T11:12:51;23.30;92.30
4962;DHT22;2496;52.468;13.342;2022-08-21T11:15:31;23.50;88.50
4962;DHT22;2496;52.468;13.342;2022-08-21T11:18:09;23.40;89.70
4962;DHT22;2496;52.468;13.342;2022-08-21T11:20:43;23.30;90.00
4962;DHT22;2496;52.468;13.342;2022-08-21T11:23:18;23.30;90.30
4962;DHT22;2496;52.468;13.342;2022-08-21T11:25:51;23.20;90.40
4962;DHT22;2496;52.468;13.342;2022-08-21T11:28:23;23.30;90.70
4962;DHT22;2496;52.468;13.342;2022-08-21T11:30:59;23.40;90.90
4962;DHT22;2496;52.468;13.342;2022-08-21T11:33:40;23.60;90.10
4962;DHT22;2496;52.468;13.342;2022-08-21T11:36:15;23.60;90.40
4962;DHT22;2496;52.468;13.342;2022-08-21T11:38:54;23.50;90.00
4962;DHT22;2496;52.468;13.342;2022-08-21T11:41:28;23.40;89.20
4962;DHT22;2496;52.468;13.342;2022-08-21T11:44:02;23.30;89.90
4962;DHT22;2496;52.468;13.342;2022-08-21T11:46:37;23.40;87.70
4962;DHT22;2496;52.468;13.342;2022-08-21T11:49:29;23.40;88.60
4962;DHT22;2496;52.468;13.342;2022-08-21T11:52:07;23.50;89.40
4962;DHT22;2496;52.468;13.342;2022-08-21T11:54:40;23.60;87.90
4962;DHT22;2496;52.468;13.342;2022-08-21T11:57:16;23.60;88.90
4962;DHT22;2496;52.468;13.342;2022-08-21T11:59:48;23.70;88.90
4962;DHT22;2496;52.468;13.342;2022-08-21T12:02:21;23.80;88.20
4962;DHT22;2496;52.468;13.342;2022-08-21T12:04:53;23.90;87.50
4962;DHT22;2496;52.468;13.342;2022-08-21T12:07:31;23.90;89.30
4962;DHT22;2496;52.468;13.342;2022-08-21T12:10:01;23.90;88.40
4962;DHT22;2496;52.468;13.342;2022-08-21T12:12:31;23.90;88.30
4962;DHT22;2496;52.468;13.342;2022-08-21T12:15:15;24.00;88.00
4962;DHT22;2496;52.468;13.342;2022-08-21T12:17:58;24.00;86.80
4962;DHT22;2496;52.468;13.342;2022-08-21T12:20:41;24.00;87.60
4962;DHT22;2496;52.468;13.342;2022-08-21T12:23:26;24.10;88.00
4962;DHT22;2496;52.468;13.342;2022-08-21T12:26:11;24.20;87.80
4962;DHT22;2496;52.468;13.342;2022-08-21T12:28:40;24.20;85.50
4962;DHT22;2496;52.468;13.342;2022-08-21T12:31:22;24.10;85.90
4962;DHT22;2496;52.468;13.342;2022-08-21T12:33:56;24.10;86.30
4962;DHT22;2496;52.468;13.342;2022-08-21T12:36:34;24.00;84.60
4962;DHT22;2496;52.468;13.342;2022-08-21T12:39:12;24.00;85.50
4962;DHT22;2496;52.468;13.342;2022-08-21T12:41:47;24.10;85.90
4962;DHT22;2496;52.468;13.342;2022-08-21T12:44:17;24.20;85.80
4962;DHT22;2496;52.468;13.342;2022-08-21T12:46:51;24.30;85.90
4962;DHT22;2496;52.468;13.342;2022-08-21T12:49:27;24.30;83.90
4962;DHT22;2496;52.468;13.342;2022-08-21T12:52:01;24.20;83.80
4962;DHT22;2496;52.468;13.342;2022-08-21T12:54:31;24.20;85.70
4962;DHT22;2496;52.468;13.342;2022-08-21T12:57:04;24.30;87.30
4962;DHT22;2496;52.468;13.342;2022-08-21T12:59:31;24.40;86.20
4962;DHT22;2496;52.468;13.342;2022-08-21T13:02:00;24.40;87.00
4962;DHT22;2496;52.468;13.342;2022-08-21T13:04:36;24.40;86.50
4962;DHT22;2496;52.468;13.342;2022-08-21T13:07:06;24.40;85.70
4962;DHT22;2496;52.468;13.342;2022-08-21T13:09:41;24.50;86.50
4962;DHT22;2496;52.468;13.342;2022-08-21T13:12:11;24.50;88.20
4962;DHT22;2496;52.468;13.342;2022-08-21T13:14:41;24.40;88.90
4962;DHT22;2496;52.468;13.342;2022-08-21T13:17:10;24.50;89.10
4962;DHT22;2496;52.468;13.342;2022-08-21T13:19:38;24.40;88.60
4962;DHT22;2496;52.468;13.342;2022-08-21T13:22:12;24.30;89.20
4962;DHT22;2496;52.468;13.342;2022-08-21T13:24:40;24.30;90.20
4962;DHT22;2496;52.468;13.342;2022-08-21T13:27:18;24.30;90.30
4962;DHT22;2496;52.468;13.342;2022-08-21T13:29:46;24.40;90.40
4962;DHT22;2496;52.468;13.342;2022-08-21T13:32:30;24.40;90.10
4962;DHT22;2496;52.468;13.342;2022-08-21T13:34:59;24.40;89.70
4962;DHT22;2496;52.468;13.342;2022-08-21T13:37:27;24.20;89.80
4962;DHT22;2496;52.468;13.342;2022-08-21T13:39:54;24.10;90.20
4962;DHT22;2496;52.468;13.342;2022-08-21T13:42:23;24.10;90.60
4962;DHT22;2496;52.468;13.342;2022-08-21T13:44:52;24.00;90.60
4962;DHT22;2496;52.468;13.342;2022-08-21T13:47:20;24.10;90.60
4962;DHT22;2496;52.468;13.342;2022-08-21T13:49:49;24.10;90.30
4962;DHT22;2496;52.468;13.342;2022-08-21T13:52:18;24.20;90.30
4962;DHT22;2496;52.468;13.342;2022-08-21T13:54:54;24.30;90.60
4962;DHT22;2496;52.468;13.342;2022-08-21T13:57:27;24.30;90.60
4962;DHT22;2496;52.468;13.342;2022-08-21T14:00:11;24.30;90.40
4962;DHT22;2496;52.468;13.342;2022-08-21T14:02:41;24.30;90.40
4962;DHT22;2496;52.468;13.342;2022-08-21T14:05:15;24.40;90.70
4962;DHT22;2496;52.468;13.342;2022-08-21T14:07:43;24.40;90.60
4962;DHT22;2496;52.468;13.342;2022-08-21T14:10:14;24.30;90.30
4962;DHT22;2496;52.468;13.342;2022-08-21T14:12:46;24.30;90.20
4962;DHT22;2496;52.468;13.342;2022-08-21T14:15:15;24.30;90.30
4962;DHT22;2496;52.468;13.342;2022-08-21T14:17:43;24.30;90.30
4962;DHT22;2496;52.468;13.342;2022-08-21T14:20:13;24.10;90.10
4962;DHT22;2496;52.468;13.342;2022-08-21T14:22:52;24.00;90.40
4962;DHT22;2496;52.468;13.342;2022-08-21T14:25:29;24.00;90.50
4962;DHT22;2496;52.468;13.342;2022-08-21T14:28:10;24.00;90.60
4962;DHT22;2496;52.468;13.342;2022-08-21T14:30:41;23.90;90.90
4962;DHT22;2496;52.468;13.342;2022-08-21T14:33:10;23.80;91.00
4962;DHT22;2496;52.468;13.342;2022-08-21T14:35:37;23.80;91.50
4962;DHT22;2496;52.468;13.342;2022-08-21T14:38:12;23.70;91.30
4962;DHT22;2496;52.468;13.342;2022-08-21T14:40:39;23.70;91.20
4962;DHT22;2496;52.468;13.342;2022-08-21T14:43:07;23.70;91.30
4962;DHT22;2496;52.468;13.342;2022-08-21T14:45:35;23.70;91.30
4962;DHT22;2496;52.468;13.342;2022-08-21T14:48:04;23.90;91.30
4962;DHT22;2496;52.468;13.342;2022-08-21T14:50:31;23.90;91.00
4962;DHT22;2496;52.468;13.342;2022-08-21T14:52:58;24.00;90.40
4962;DHT22;2496;52.468;13.342;2022-08-21T14:55:27;24.00;90.50
4962;DHT22;2496;52.468;13.342;2022-08-21T14:57:55;24.10;90.90
4962;DHT22;2496;52.468;13.342;2022-08-21T15:00:25;24.20;91.20
4962;DHT22;2496;52.468;13.342;2022-08-21T15:02:52;24.20;90.70
4962;DHT22;2496;52.468;13.342;2022-08-21T15:05:19;24.10;91.20
4962;DHT22;2496;52.468;13.342;2022-08-21T15:07:46;24.10;90.60
4962;DHT22;2496;52.468;13.342;2022-08-21T15:10:13;24.00;91.00
4962;DHT22;2496;52.468;13.342;2022-08-21T15:12:40;24.00;90.80
4962;DHT22;2496;52.468;13.342;2022-08-21T15:15:07;23.90;90.90
4962;DHT22;2496;52.468;13.342;2022-08-21T15:17:37;23.80;91.00
4962;DHT22;2496;52.468;13.342;2022-08-21T15:20:04;23.70;91.10
4962;DHT22;2496;52.468;13.342;2022-08-21T15:22:35;23.60;91.50
4962;DHT22;2496;52.468;13.342;2022-08-21T15:25:02;23.60;91.40
4962;DHT22;2496;52.468;13.342;2022-08-21T15:27:30;23.60;91.40
4962;DHT22;2496;52.468;13.342;2022-08-21T15:29:57;23.60;91.20
4962;DHT22;2496;52.468;13.342;2022-08-21T15:32:27;23.50;91.30
4962;DHT22;2496;52.468;13.342;2022-08-21T15:34:57;23.50;91.00
4962;DHT22;2496;52.468;13.342;2022-08-21T15:37:25;23.50;91.10
4962;DHT22;2496;52.468;13.342;2022-08-21T15:39:52;23.50;91.20
4962;DHT22;2496;52.468;13.342;2022-08-21T15:42:20;23.40;91.30
4962;DHT22;2496;52.468;13.342;2022-08-21T15:44:53;23.40;91.60
4962;DHT22;2496;52.468;13.342;2022-08-21T15:47:22;23.40;91.70
4962;DHT22;2496;52.468;13.342;2022-08-21T15:49:51;23.30;91.70
4962;DHT22;2496;52.468;13.342;2022-08-21T15:52:21;23.30;91.90
4962;DHT22;2496;52.468;13.342;2022-08-21T15:54:48;23.30;91.80
4962;DHT22;2496;52.468;13.342;2022-08-21T15:57:18;23.40;91.70
4962;DHT22;2496;52.468;13.342;2022-08-21T15:59:47;23.50;91.70
4962;DHT22;2496;52.468;13.342;2022-08-21T16:02:18;23.40;91.80
4962;DHT22;2496;52.468;13.342;2022-08-21T16:04:45;23.40;92.10
4962;DHT22;2496;52.468;13.342;2022-08-21T16:07:12;23.30;91.60